Time;durP1;ratioP1;P1;durP2;ratioP2;P2;SDS_P1;SDS_P2;PMS_P1;PMS_P2;Temp;Humidity;BMP_temperature;BMP_pressure;BME280_temperature;BME280_humidity;BME280_pressure;Samples;Min_cycle;Max_cycle;Signal;HPM_P1;HPM_P2
2022/02/12 00:00:50;;;;;;;24.53;16.43;;;;;;;1.45;88.67;99892.74;2291571;78;21028;-83
2022/02/12 00:03:50;;;;;;;25.80;16.63;;;;;;;1.45;88.67;99884.13;2291349;78;21347;-84
2022/02/12 00:06:53;;;;;;;23.70;15.20;;;;;;;1.46;88.39;99882.95;2291620;78;20932;-84
2022/02/12 00:09:53;;;;;;;24.93;14.70;;;;;;;1.48;88.08;99888.19;2282765;78;21100;-83
2022/02/12 00:12:54;;;;;;;24.00;14.77;;;;;;;1.50;88.10;99891.35;2282246;78;20907;-83
2022/02/12 00:15:54;;;;;;;21.80;15.20;;;;;;;1.51;88.17;99891.84;2281824;78;21042;-84
2022/02/12 00:18:56;;;;;;;26.23;15.10;;;;;;;1.52;87.94;99896.20;2282229;78;20957;-83
2022/02/12 00:21:56;;;;;;;22.50;13.63;;;;;;;1.54;87.75;99901.05;2282643;78;20968;-83
2022/02/12 00:24:57;;;;;;;27.40;16.07;;;;;;;1.54;87.67;99897.59;2282627;78;20918;-83
2022/02/12 00:27:58;;;;;;;20.97;14.37;;;;;;;1.54;87.82;99911.74;2282437;78;20918;-84
2022/02/12 00:30:58;;;;;;;24.00;14.93;;;;;;;1.52;87.87;99903.92;2282106;78;20969;-83
2022/02/12 00:33:59;;;;;;;29.53;18.43;;;;;;;1.52;87.81;99909.47;2282323;78;20993;-83
2022/02/12 00:36:59;;;;;;;30.83;17.60;;;;;;;1.51;88.06;99921.44;2281405;78;20899;-83
2022/02/12 00:43:03;;;;;;;25.30;17.23;;;;;;;1.48;88.42;99919.06;2262865;78;20906;-83
2022/02/12 00:46:04;;;;;;;28.23;17.53;;;;;;;1.46;88.44;99928.37;2254325;78;21082;-83
2022/02/12 00:49:07;;;;;;;25.37;16.40;;;;;;;1.40;88.84;99929.26;2282346;78;21037;-83
2022/02/12 00:52:07;;;;;;;26.57;18.33;;;;;;;1.33;89.19;99943.80;2283336;78;21029;-83
2022/02/12 00:55:09;;;;;;;30.90;21.93;;;;;;;1.27;89.52;99951.61;2282778;78;21080;-83
2022/02/12 00:58:09;;;;;;;23.60;13.70;;;;;;;1.23;89.69;99965.06;2282672;78;20949;-84
2022/02/12 01:01:10;;;;;;;15.43;11.13;;;;;;;1.18;88.50;99968.12;2283158;78;20950;-83
2022/02/12 01:07:13;;;;;;;14.43;7.40;;;;;;;1.04;86.48;99986.88;2261880;78;20965;-83
2022/02/12 01:13:25;;;;;;;11.87;6.00;;;;;;;0.88;82.98;99994.84;2228995;78;21032;-83
2022/02/12 01:19:37;;;;;;;10.83;6.40;;;;;;;0.84;82.57;99998.35;2227549;79;21063;-84
2022/02/12 01:22:40;;;;;;;10.27;6.30;;;;;;;0.87;83.54;99994.73;2249732;78;21300;-83
2022/02/12 01:25:44;;;;;;;21.13;7.80;;;;;;;0.89;83.24;99993.16;2250081;77;21036;-84
2022/02/12 01:28:44;;;;;;;13.37;9.13;;;;;;;0.92;82.78;100004.94;2249872;79;21023;-84
2022/02/12 01:31:45;;;;;;;13.17;9.60;;;;;;;0.93;83.30;99996.05;2250224;78;21378;-83
2022/02/12 01:34:46;;;;;;;14.63;9.47;;;;;;;0.93;84.03;100002.87;2250576;78;20948;-83
2022/02/12 01:37:50;;;;;;;16.90;10.10;;;;;;;0.91;84.03;100008.30;2228360;79;20940;-84
2022/02/12 01:40:51;;;;;;;22.27;11.70;;;;;;;0.88;84.02;100014.13;2250239;79;20940;-81
2022/02/12 01:43:54;;;;;;;15.90;10.80;;;;;;;0.86;84.29;100011.80;2249686;79;21360;-83
2022/02/12 01:46:55;;;;;;;16.47;10.70;;;;;;;0.83;84.59;100018.41;2227262;79;20999;-82
2022/02/12 01:49:55;;;;;;;16.47;11.10;;;;;;;0.78;84.86;100018.49;2248792;79;21407;-82
2022/02/12 01:52:56;;;;;;;20.30;11.00;;;;;;;0.71;85.06;100017.58;2227400;79;21283;-83
2022/02/12 01:55:58;;;;;;;19.43;9.70;;;;;;;0.64;85.21;100031.28;2249570;79;21003;-82
2022/02/12 01:59:02;;;;;;;14.20;9.57;;;;;;;0.60;84.63;100033.53;2245168;79;21358;-83
2022/02/12 02:02:04;;;;;;;16.20;9.90;;;;;;;0.53;84.48;100032.21;2249154;79;21015;-83
2022/02/12 02:05:04;;;;;;;16.00;9.37;;;;;;;0.47;84.55;100043.73;2250740;78;20920;-81
2022/02/12 02:08:05;;;;;;;18.17;10.27;;;;;;;0.42;83.68;100047.27;2257648;77;21047;-83
2022/02/12 02:14:11;;;;;;;15.57;9.93;;;;;;;0.32;84.85;100064.09;2267552;78;21026;-78
2022/02/12 02:17:11;;;;;;;16.80;11.13;;;;;;;0.26;84.93;100077.39;2291499;78;20948;-82
2022/02/12 02:20:12;;;;;;;15.30;10.30;;;;;;;0.22;85.04;100080.91;2293061;78;20932;-82
2022/02/12 02:23:12;;;;;;;17.83;10.07;;;;;;;0.15;85.01;100081.25;2292983;78;20880;-83
2022/02/12 02:26:14;;;;;;;15.60;9.90;;;;;;;0.09;85.05;100085.55;2293207;78;20936;-83
2022/02/12 02:29:15;;;;;;;15.77;8.70;;;;;;;0.07;85.09;100096.50;2291530;78;20995;-83
2022/02/12 02:32:17;;;;;;;16.67;9.00;;;;;;;0.03;85.16;100099.23;2291966;78;20947;-83
2022/02/12 02:35:19;;;;;;;14.97;7.77;;;;;;;0.00;85.05;100106.70;2291526;78;21022;-83
2022/02/12 02:38:20;;;;;;;12.67;7.77;;;;;;;-0.03;84.92;100107.34;2291467;78;21019;-83
2022/02/12 02:41:20;;;;;;;11.13;7.03;;;;;;;-0.05;85.00;100107.63;2291318;78;20944;-83
2022/02/12 02:44:21;;;;;;;13.53;6.90;;;;;;;-0.09;85.05;100110.74;2292018;78;21034;-83
2022/02/12 02:47:40;;;;;;;12.43;7.00;;;;;;;-0.13;85.04;100125.41;2292663;78;20959;-82
2022/02/12 02:57:17;;;;;;;17.00;6.20;;;;;;;-0.17;85.26;100146.89;2292833;78;20936;-82
2022/02/12 03:00:18;;;;;;;13.93;6.70;;;;;;;-0.15;85.25;100148.79;2292118;78;20944;-84
2022/02/12 03:03:19;;;;;;;12.27;5.03;;;;;;;-0.13;85.20;100165.58;2291995;78;20955;-82
2022/02/12 03:06:19;;;;;;;9.33;4.50;;;;;;;-0.12;84.98;100169.94;2292708;78;20905;-82
2022/02/12 03:09:21;;;;;;;10.13;4.23;;;;;;;-0.07;85.12;100172.45;2292457;78;20948;-82
2022/02/12 03:12:23;;;;;;;9.57;4.90;;;;;;;-0.03;84.01;100193.34;2269343;78;20976;-82
2022/02/12 03:15:24;;;;;;;9.53;4.17;;;;;;;0.03;83.89;100189.47;2268503;78;20932;-83
2022/02/12 03:18:25;;;;;;;9.43;4.10;;;;;;;0.05;83.13;100188.80;2292082;78;20936;-83
2022/02/12 03:21:26;;;;;;;11.87;4.70;;;;;;;0.08;82.58;100203.16;2292378;78;20975;-82
2022/02/12 03:24:26;;;;;;;9.63;4.70;;;;;;;0.10;82.19;100201.98;2293341;78;20877;-82
2022/02/12 03:27:27;;;;;;;14.13;5.00;;;;;;;0.11;82.12;100212.76;2293141;78;20920;-82
2022/02/12 03:30:27;;;;;;;8.50;4.10;;;;;;;0.11;81.91;100214.94;2292745;78;20950;-83
2022/02/12 03:33:28;;;;;;;13.23;4.43;;;;;;;0.12;81.19;100220.97;2292511;78;21348;-83
2022/02/12 03:36:29;;;;;;;8.33;4.43;;;;;;;0.11;80.92;100221.74;2292267;78;20873;-83
2022/02/12 03:39:29;;;;;;;7.83;4.27;;;;;;;0.08;81.11;100230.11;2291863;78;20957;-84
2022/02/12 03:42:30;;;;;;;7.67;4.40;;;;;;;0.09;81.24;100234.47;2292474;78;20936;-82
2022/02/12 03:45:35;;;;;;;10.10;4.67;;;;;;;0.10;81.36;100244.34;2269426;78;21098;-83
2022/02/12 03:48:35;;;;;;;14.53;4.67;;;;;;;0.11;81.71;100244.85;2292849;78;21307;-83
2022/02/12 03:51:36;;;;;;;14.50;4.90;;;;;;;0.11;81.76;100251.27;2292353;78;20917;-81
2022/02/12 03:54:37;;;;;;;13.30;4.77;;;;;;;0.10;81.77;100260.65;2292283;78;20960;-82
2022/02/12 03:57:38;;;;;;;10.47;4.47;;;;;;;0.09;81.66;100271.70;2292046;78;21028;-82
2022/02/12 04:00:38;;;;;;;10.30;4.00;;;;;;;0.08;81.90;100265.16;2292571;78;20921;-82
2022/02/12 04:03:39;;;;;;;13.40;5.00;;;;;;;0.05;81.74;100268.39;2292348;78;20980;-83
2022/02/12 04:06:39;;;;;;;8.17;4.20;;;;;;;0.06;82.13;100276.98;2291397;78;20991;-82
2022/02/12 04:09:40;;;;;;;9.83;4.13;;;;;;;0.05;82.11;100286.36;2286170;78;21005;-84
2022/02/12 04:12:40;;;;;;;7.20;3.60;;;;;;;0.04;82.10;100287.53;2261841;78;20961;-82
2022/02/12 04:15:41;;;;;;;11.47;4.27;;;;;;;0.05;82.27;100293.17;2282971;78;20973;-82
2022/02/12 04:18:42;;;;;;;11.87;4.23;;;;;;;0.04;81.78;100299.08;2282760;77;20956;-82
2022/02/12 04:21:42;;;;;;;11.00;4.63;;;;;;;0.03;81.53;100298.19;2282696;77;20906;-84
2022/02/12 04:24:43;;;;;;;12.10;5.53;;;;;;;0.01;81.19;100308.73;2283430;77;20965;-83
2022/02/12 04:27:43;;;;;;;11.77;5.27;;;;;;;0.03;81.74;100317.84;2282901;77;20926;-83
2022/02/12 04:30:44;;;;;;;11.50;4.93;;;;;;;0.03;82.01;100319.12;2283138;77;20902;-82
2022/02/12 04:33:44;;;;;;;11.97;5.20;;;;;;;0.01;81.88;100319.39;2281689;77;21008;-83
2022/02/12 04:36:45;;;;;;;12.07;4.10;;;;;;;-0.01;81.85;100331.69;2282123;77;20981;-82
2022/02/12 04:39:45;;;;;;;12.67;4.60;;;;;;;-0.03;81.49;100326.82;2281567;77;20942;-83
2022/02/12 04:42:46;;;;;;;10.43;5.10;;;;;;;-0.06;81.21;100326.59;2281632;77;20974;-82
2022/02/12 04:45:46;;;;;;;11.07;5.40;;;;;;;-0.09;80.86;100336.62;2281683;77;21021;-82
2022/02/12 04:48:49;;;;;;;17.23;5.93;;;;;;;-0.13;80.90;100333.31;2282648;77;20958;-81
2022/02/12 04:51:49;;;;;;;16.00;7.00;;;;;;;-0.13;82.82;100335.87;2283162;78;20984;-82
2022/02/12 04:54:49;;;;;;;10.10;4.90;;;;;;;0.06;81.57;100336.04;2282587;77;21432;-82
2022/02/12 04:57:50;;;;;;;12.37;4.90;;;;;;;0.00;81.06;100348.02;2282567;77;20977;-81
2022/02/12 05:00:50;;;;;;;9.67;4.23;;;;;;;-0.03;81.23;100349.92;2281063;77;20921;-82
2022/02/12 05:03:51;;;;;;;15.07;4.33;;;;;;;0.57;83.11;100354.50;2281280;77;20973;-83
2022/02/12 05:06:51;;;;;;;15.67;7.43;;;;;;;0.40;80.40;100355.80;2281404;77;21041;-82
2022/02/12 05:09:52;;;;;;;9.57;4.80;;;;;;;0.27;80.31;100363.36;2281943;77;21026;-82
2022/02/12 05:12:52;;;;;;;7.80;4.60;;;;;;;0.17;79.79;100370.75;2282147;77;20935;-81
2022/02/12 05:15:53;;;;;;;9.57;4.03;;;;;;;0.11;80.12;100377.08;2265661;77;20989;-81
2022/02/12 05:18:53;;;;;;;17.23;5.83;;;;;;;0.11;79.71;100383.50;2256393;78;21353;-80
2022/02/12 05:21:54;;;;;;;17.57;6.23;;;;;;;0.09;80.08;100387.23;2282835;77;20965;-81
2022/02/12 05:24:57;;;;;;;8.93;4.87;;;;;;;0.09;80.14;100394.94;2283743;77;20937;-81
2022/02/12 05:27:57;;;;;;;13.67;5.00;;;;;;;0.10;80.41;100394.55;2282427;77;20942;-82
2022/02/12 05:30:58;;;;;;;11.73;4.23;;;;;;;0.12;80.50;100398.12;2281519;77;21374;-80
2022/02/12 05:33:58;;;;;;;10.43;4.83;;;;;;;0.12;80.52;100397.74;2283119;77;20977;-81
2022/02/12 05:36:59;;;;;;;13.87;5.70;;;;;;;0.10;80.37;100403.15;2282468;77;20984;-81
2022/02/12 05:39:59;;;;;;;13.40;5.67;;;;;;;0.08;80.40;100403.42;2282478;78;20890;-82
2022/02/12 05:43:02;;;;;;;10.10;4.87;;;;;;;0.04;80.53;100412.05;2283004;77;20946;-82
2022/02/12 05:46:03;;;;;;;8.33;4.27;;;;;;;-0.01;80.48;100412.55;2282022;78;21116;-82
2022/02/12 05:49:04;;;;;;;16.97;6.57;;;;;;;-0.09;80.16;100420.04;2282198;77;21040;-81
2022/02/12 05:52:05;;;;;;;16.97;9.10;;;;;;;-0.19;80.35;100426.51;2283644;77;20985;-81
2022/02/12 05:55:06;;;;;;;33.77;15.73;;;;;;;-0.23;80.61;100425.76;2284001;78;20977;-82
2022/02/12 05:58:06;;;;;;;34.00;14.13;;;;;;;-0.26;80.67;100440.91;2281445;78;21479;-81
2022/02/12 06:01:07;;;;;;;46.27;18.83;;;;;;;-0.24;81.06;100441.03;2281735;78;20946;-81
2022/02/12 06:04:07;;;;;;;61.20;25.63;;;;;;;-0.17;81.12;100448.45;2282288;78;21020;-82
2022/02/12 06:07:10;;;;;;;61.50;19.93;;;;;;;-0.13;80.98;100447.52;2282353;78;21033;-83
2022/02/12 06:10:10;;;;;;;45.07;15.00;;;;;;;-0.10;80.71;100458.42;2265541;77;20979;-85
2022/02/12 06:13:13;;;;;;;32.67;11.60;;;;;;;-0.08;80.99;100459.44;2228525;79;20928;-82
2022/02/12 06:19:23;;;;;;;47.23;19.55;;;;;;;-0.02;80.70;100467.23;2204351;79;20944;-83
2022/02/12 06:22:26;;;;;;;37.97;13.47;;;;;;;-0.02;80.80;100467.23;2249482;79;21058;-84
2022/02/12 06:25:26;;;;;;;21.70;8.03;;;;;;;0.05;80.99;100469.94;2248465;79;21015;-84
2022/02/12 06:28:27;;;;;;;22.20;7.80;;;;;;;0.10;80.68;100484.03;2249624;78;20932;-83
2022/02/12 06:31:28;;;;;;;25.10;8.47;;;;;;;0.13;80.24;100485.55;2249347;79;20991;-85
2022/02/12 06:34:28;;;;;;;17.30;7.67;;;;;;;0.22;80.44;100480.25;2249239;79;20932;-83
2022/02/12 06:37:29;;;;;;;29.73;12.70;;;;;;;0.28;80.23;100484.19;2250235;79;21347;-85
2022/02/12 06:40:30;;;;;;;26.33;12.73;;;;;;;0.31;80.01;100493.41;2249796;79;21031;-83
2022/02/12 06:43:31;;;;;;;35.07;14.57;;;;;;;0.33;79.83;100492.64;2250415;78;20991;-83
2022/02/12 06:46:31;;;;;;;32.23;12.70;;;;;;;0.33;79.67;100493.53;2249684;78;21411;-83
2022/02/12 06:49:32;;;;;;;20.93;9.30;;;;;;;0.31;79.85;100496.38;2250277;79;20966;-83
2022/02/12 06:52:32;;;;;;;19.17;7.47;;;;;;;0.28;79.65;100508.59;2250768;78;20920;-84
2022/02/12 06:55:33;;;;;;;15.87;7.37;;;;;;;0.35;79.99;100514.20;2250464;78;20995;-84
2022/02/12 06:58:34;;;;;;;14.30;7.07;;;;;;;0.48;79.85;100521.70;2251574;79;21270;-84
2022/02/12 07:01:37;;;;;;;15.00;6.67;;;;;;;0.56;79.56;100525.77;2251298;78;21295;-83
2022/02/12 07:04:37;;;;;;;12.47;5.80;;;;;;;0.63;79.30;100529.31;2250897;78;20964;-85
2022/02/12 07:07:38;;;;;;;17.03;7.13;;;;;;;0.61;78.51;100536.02;2249962;78;21323;-83
2022/02/12 07:10:39;;;;;;;18.60;7.37;;;;;;;0.59;77.51;100533.71;2271175;78;20974;-84
2022/02/12 07:13:39;;;;;;;15.57;7.27;;;;;;;0.58;77.49;100539.63;2282754;77;21289;-84
2022/02/12 07:16:40;;;;;;;22.23;7.77;;;;;;;0.59;77.76;100549.13;2283007;78;20970;-84
2022/02/12 07:19:43;;;;;;;10.43;5.43;;;;;;;0.66;78.22;100550.89;2283477;78;20978;-83
2022/02/12 07:25:46;;;;;;;19.07;7.50;;;;;;;0.70;78.18;100554.20;2262165;78;20946;-84
2022/02/12 07:28:47;;;;;;;16.47;7.47;;;;;;;0.77;78.18;100557.38;2282731;77;21371;-83
2022/02/12 07:31:47;;;;;;;19.57;8.63;;;;;;;0.79;77.99;100563.92;2282092;77;20977;-83
2022/02/12 07:34:48;;;;;;;18.90;8.07;;;;;;;0.79;77.67;100570.34;2281622;77;21227;-83
2022/02/12 07:37:49;;;;;;;16.03;8.13;;;;;;;0.81;78.10;100581.25;2282819;78;20931;-83
2022/02/12 07:40:49;;;;;;;16.27;8.70;;;;;;;0.93;77.95;100595.48;2282655;78;20973;-83
2022/02/12 07:43:51;;;;;;;16.67;8.77;;;;;;;1.08;77.62;100597.05;2282798;77;20938;-83
2022/02/12 07:46:55;;;;;;;17.27;8.23;;;;;;;1.07;77.55;100601.30;2281621;77;21058;-83
2022/02/12 07:49:55;;;;;;;11.80;6.67;;;;;;;1.08;76.77;100606.95;2282127;77;20962;-84
2022/02/12 07:52:56;;;;;;;10.63;6.10;;;;;;;1.08;76.41;100611.20;2282364;77;21348;-83
2022/02/12 07:55:59;;;;;;;14.17;6.47;;;;;;;1.08;76.24;100620.20;2281638;78;21089;-84
2022/02/12 07:59:00;;;;;;;11.57;6.53;;;;;;;1.13;76.01;100623.63;2281862;77;21001;-84
2022/02/12 08:02:02;;;;;;;13.40;6.23;;;;;;;1.23;76.13;100629.98;2282764;77;20899;-84
2022/02/12 08:05:02;;;;;;;13.17;5.80;;;;;;;1.25;74.54;100630.11;2282810;77;20906;-84
2022/02/12 08:08:03;;;;;;;18.37;6.97;;;;;;;1.41;74.81;100624.06;2282977;78;20966;-83
2022/02/12 08:11:22;;;;;;;10.43;5.17;;;;;;;1.63;74.54;100636.87;2282540;77;21013;-84
2022/02/12 08:14:23;;;;;;;11.00;4.70;;;;;;;1.73;72.43;100641.94;2280567;77;21404;-84
2022/02/12 08:17:23;;;;;;;16.17;4.80;;;;;;;1.71;72.67;100639.64;2281546;77;21068;-85
2022/02/12 08:20:24;;;;;;;13.30;5.63;;;;;;;1.63;72.12;100643.31;2282464;78;20969;-84
2022/02/12 08:23:25;;;;;;;12.77;7.03;;;;;;;1.58;73.07;100641.68;2281956;77;20890;-84
2022/02/12 08:26:25;;;;;;;11.57;6.47;;;;;;;1.64;72.51;100650.64;2282645;77;21001;-85
2022/02/12 08:29:28;;;;;;;9.90;4.83;;;;;;;1.50;72.42;100644.45;2281402;78;20969;-84
2022/02/12 08:32:28;;;;;;;11.10;5.33;;;;;;;1.35;73.20;100656.15;2282006;78;21046;-84
2022/02/12 08:35:30;;;;;;;9.27;4.90;;;;;;;1.21;73.07;100663.70;2281280;78;21337;-84
2022/02/12 08:38:30;;;;;;;11.47;4.93;;;;;;;1.15;73.14;100665.80;2281155;77;20930;-84
2022/02/12 08:41:31;;;;;;;10.67;5.33;;;;;;;1.09;73.64;100669.57;2281515;77;20974;-84
2022/02/12 08:47:34;;;;;;;12.17;6.60;;;;;;;1.16;74.36;100681.74;2260785;78;21105;-84
2022/02/12 08:50:35;;;;;;;12.67;6.90;;;;;;;1.35;74.35;100689.59;2282048;77;20973;-84
2022/02/12 08:53:35;;;;;;;14.87;6.40;;;;;;;1.48;73.17;100692.34;2281568;77;21287;-83
2022/02/12 08:56:36;;;;;;;13.33;6.63;;;;;;;1.61;73.41;100688.64;2281757;78;21032;-84
2022/02/12 08:59:36;;;;;;;14.13;7.43;;;;;;;1.73;73.20;100690.85;2281418;77;20953;-83
2022/02/12 09:02:37;;;;;;;13.03;6.37;;;;;;;1.84;72.86;100690.02;2281512;77;20949;-84
2022/02/12 09:08:40;;;;;;;11.40;5.13;;;;;;;2.12;72.60;100688.22;2259759;78;21041;-83
2022/02/12 09:11:41;;;;;;;12.33;5.93;;;;;;;2.35;70.38;100706.27;2289055;77;20995;-83
2022/02/12 09:14:41;;;;;;;9.73;4.67;;;;;;;2.26;69.28;100703.41;2290844;78;20960;-79
2022/02/12 09:17:43;;;;;;;21.87;9.57;;;;;;;2.19;69.28;100702.06;2290325;77;21046;-80
2022/02/12 09:20:44;;;;;;;15.63;7.00;;;;;;;2.44;69.70;100706.05;2291069;78;20960;-84
2022/02/12 09:23:44;;;;;;;9.97;4.07;;;;;;;2.72;70.31;100702.15;2292076;78;20905;-84
2022/02/12 09:26:45;;;;;;;10.17;4.53;;;;;;;2.77;68.64;100701.19;2290928;78;20988;-84
2022/02/12 09:29:45;;;;;;;10.10;4.27;;;;;;;2.68;69.07;100700.53;2291519;78;20979;-85
2022/02/12 09:32:46;;;;;;;14.10;4.93;;;;;;;2.50;69.06;100708.69;2291573;78;20962;-84
2022/02/12 09:35:53;;;;;;;8.57;4.90;;;;;;;2.29;68.76;100707.11;2291240;78;21026;-83
2022/02/12 09:38:52;;;;;;;8.73;3.97;;;;;;;2.39;68.87;100708.30;2290841;77;21043;-84
2022/02/12 09:41:54;;;;;;;8.03;3.43;;;;;;;2.43;68.04;100706.44;2269285;78;20936;-85
2022/02/12 09:44:55;;;;;;;9.30;5.30;;;;;;;2.48;67.40;100702.52;2291618;78;20971;-84
2022/02/12 09:47:55;;;;;;;11.90;6.63;;;;;;;2.55;67.27;100703.87;2290127;78;20999;-84
2022/02/12 09:50:56;;;;;;;9.33;4.80;;;;;;;2.72;68.16;100706.41;2290653;78;20960;-84
2022/02/12 09:53:57;;;;;;;7.33;3.70;;;;;;;3.10;66.76;100712.63;2291416;78;21038;-83
2022/02/12 09:56:58;;;;;;;7.20;3.83;;;;;;;3.35;65.15;100710.48;2292402;78;21063;-84
2022/02/12 09:59:58;;;;;;;9.50;5.17;;;;;;;3.38;64.29;100714.56;2291776;78;21314;-84
2022/02/12 10:02:59;;;;;;;11.67;5.13;;;;;;;3.26;64.31;100709.44;2291585;78;20928;-83
2022/02/12 10:05:59;;;;;;;9.10;4.50;;;;;;;3.24;65.71;100714.89;2291825;78;20925;-84
2022/02/12 10:09:00;;;;;;;9.20;4.40;;;;;;;3.31;64.41;100714.53;2290844;78;20996;-83
2022/02/12 10:12:00;;;;;;;6.40;4.03;;;;;;;3.23;63.82;100722.13;2281885;78;21161;-83
2022/02/12 10:15:04;;;;;;;8.00;4.20;;;;;;;3.20;65.10;100721.52;2281275;78;21048;-83
2022/02/12 10:18:04;;;;;;;6.87;3.77;;;;;;;3.14;63.90;100716.31;2260996;78;20985;-84
2022/02/12 10:21:05;;;;;;;10.60;4.03;;;;;;;3.13;64.10;100710.27;2281229;77;20935;-82
2022/02/12 10:24:05;;;;;;;7.40;3.20;;;;;;;3.21;64.82;100712.09;2280828;78;20981;-80
2022/02/12 10:30:08;;;;;;;7.03;4.23;;;;;;;3.37;62.75;100714.06;2260494;78;21474;-81
2022/02/12 10:33:09;;;;;;;9.77;5.03;;;;;;;3.31;63.10;100717.50;2281243;77;20930;-82
2022/02/12 10:36:09;;;;;;;7.20;3.90;;;;;;;3.40;61.47;100715.56;2280372;77;21009;-84
2022/02/12 10:39:10;;;;;;;5.80;3.60;;;;;;;3.31;59.79;100717.50;2281273;78;20954;-84
2022/02/12 10:42:10;;;;;;;8.97;4.00;;;;;;;3.30;61.83;100717.00;2280841;77;20952;-84
2022/02/12 10:45:13;;;;;;;8.80;4.57;;;;;;;3.25;61.43;100724.42;2280674;78;21189;-84
2022/02/12 10:48:14;;;;;;;8.50;4.00;;;;;;;3.12;61.07;100727.82;2281325;78;21423;-84
2022/02/12 10:51:16;;;;;;;10.37;4.40;;;;;;;3.22;63.04;100712.59;2280937;78;20996;-83
2022/02/12 10:54:19;;;;;;;5.80;3.37;;;;;;;3.44;62.73;100708.14;2281174;77;21080;-85
2022/02/12 10:57:19;;;;;;;13.33;4.60;;;;;;;3.66;62.78;100707.97;2282136;78;20982;-85
2022/02/12 11:00:19;;;;;;;6.90;3.93;;;;;;;3.80;61.97;100706.33;2282338;77;21013;-85
2022/02/12 11:03:20;;;;;;;5.67;3.83;;;;;;;3.82;60.41;100706.93;2281953;77;20969;-81
2022/02/12 11:06:21;;;;;;;7.30;4.33;;;;;;;3.77;59.22;100703.14;2280163;77;20989;-84
2022/02/12 11:09:22;;;;;;;9.07;4.30;;;;;;;3.72;60.24;100697.16;2279944;78;20985;-85
2022/02/12 11:12:29;;;;;;;8.43;4.50;;;;;;;3.70;60.78;100698.34;2250489;78;20992;-84
2022/02/12 11:15:25;;;;;;;8.47;4.87;;;;;;;3.65;58.78;100693.27;2245936;79;21018;-84
2022/02/12 11:18:26;;;;;;;6.63;3.97;;;;;;;3.47;59.39;100692.00;2247147;78;21006;-83
2022/02/12 11:21:29;;;;;;;8.17;4.07;;;;;;;3.41;59.24;100687.28;2247590;78;21419;-83
2022/02/12 11:24:30;;;;;;;4.23;3.20;;;;;;;3.56;60.48;100686.17;2246780;78;21028;-84
2022/02/12 11:27:30;;;;;;;4.93;3.33;;;;;;;3.61;59.10;100678.35;2247352;79;21034;-84
2022/02/12 11:30:30;;;;;;;7.83;4.27;;;;;;;3.60;58.39;100668.81;2247348;79;20987;-83
2022/02/12 11:33:31;;;;;;;7.63;4.20;;;;;;;3.56;57.33;100669.79;2248316;78;20924;-84
2022/02/12 11:36:31;;;;;;;9.67;4.30;;;;;;;3.51;59.30;100665.60;2249841;78;21007;-84
2022/02/12 11:39:32;;;;;;;6.83;4.30;;;;;;;3.53;58.44;100670.48;2249162;79;20955;-85
2022/02/12 11:45:37;;;;;;;9.73;4.25;;;;;;;3.52;59.33;100654.48;2228589;79;21030;-83
2022/02/12 11:48:38;;;;;;;11.57;4.60;;;;;;;3.60;59.74;100651.13;2249835;78;21887;-84
2022/02/12 11:51:41;;;;;;;7.53;4.03;;;;;;;3.63;57.68;100650.95;2248698;77;20991;-83
2022/02/12 11:54:41;;;;;;;9.13;4.33;;;;;;;3.68;58.94;100644.80;2250083;78;20987;-83
2022/02/12 11:57:42;;;;;;;8.77;4.43;;;;;;;3.79;58.87;100642.14;2249766;79;21365;-85
2022/02/12 12:00:42;;;;;;;11.70;4.23;;;;;;;3.83;58.25;100645.43;2250160;78;20936;-83
2022/02/12 12:03:43;;;;;;;11.47;4.93;;;;;;;3.84;57.53;100647.62;2248076;78;20990;-84
2022/02/12 12:06:43;;;;;;;6.10;3.50;;;;;;;3.82;58.10;100643.64;2248217;78;20959;-84
2022/02/12 12:09:44;;;;;;;11.40;3.43;;;;;;;3.91;55.35;100641.17;2248181;78;20989;-84
2022/02/12 12:12:44;;;;;;;5.13;3.10;;;;;;;3.92;55.85;100637.80;2277895;78;21037;-85
2022/02/12 12:15:45;;;;;;;4.53;3.20;;;;;;;3.94;54.83;100637.11;2280203;77;21024;-84
2022/02/12 12:18:45;;;;;;;5.73;3.00;;;;;;;3.95;55.50;100635.02;2280131;77;20929;-84
2022/02/12 12:21:46;;;;;;;5.07;2.60;;;;;;;4.01;53.09;100634.53;2280255;77;21088;-83
2022/02/12 12:24:47;;;;;;;5.83;2.83;;;;;;;3.97;49.35;100639.89;2281470;77;20969;-85
2022/02/12 12:27:47;;;;;;;5.67;2.73;;;;;;;3.93;52.56;100634.42;2279301;78;21040;-85
2022/02/12 12:30:48;;;;;;;7.53;3.60;;;;;;;3.97;53.95;100632.53;2279848;78;20949;-83
2022/02/12 12:33:49;;;;;;;8.97;4.00;;;;;;;4.02;54.22;100631.15;2279780;77;21012;-83
2022/02/12 12:36:49;;;;;;;5.93;3.43;;;;;;;4.08;54.72;100626.38;2259696;78;21341;-83
2022/02/12 12:39:53;;;;;;;7.77;3.97;;;;;;;4.07;53.71;100628.47;2281617;77;20887;-82
2022/02/12 12:42:53;;;;;;;7.30;4.47;;;;;;;4.03;55.26;100640.69;2261475;78;20990;-85
2022/02/12 12:45:54;;;;;;;7.10;3.97;;;;;;;4.06;54.19;100630.55;2281142;77;20974;-84
2022/02/12 12:48:54;;;;;;;7.93;3.80;;;;;;;4.04;54.63;100621.81;2280844;77;20950;-84
2022/02/12 12:51:55;;;;;;;6.07;4.10;;;;;;;4.02;54.83;100624.69;2281272;77;21325;-84
2022/02/12 12:54:55;;;;;;;8.10;3.90;;;;;;;4.02;54.93;100629.86;2280144;78;21407;-83
2022/02/12 12:57:56;;;;;;;8.37;3.73;;;;;;;4.09;54.59;100623.91;2280167;78;20990;-84
2022/02/12 13:00:56;;;;;;;5.37;2.87;;;;;;;4.12;51.39;100625.39;2280147;77;20958;-83
2022/02/12 13:03:57;;;;;;;3.27;2.10;;;;;;;4.05;53.33;100630.06;2279781;77;20997;-83
2022/02/12 13:06:58;;;;;;;4.60;2.57;;;;;;;4.07;48.71;100624.59;2279332;78;21381;-84
2022/02/12 13:10:00;;;;;;;4.33;3.20;;;;;;;4.05;48.84;100621.02;2281051;77;20938;-83
2022/02/12 13:13:01;;;;;;;5.83;3.03;;;;;;;4.03;49.40;100621.31;2290048;77;21291;-83
2022/02/12 13:16:01;;;;;;;4.93;3.13;;;;;;;4.00;50.95;100623.30;2290760;78;21434;-83
2022/02/12 13:19:03;;;;;;;6.07;3.40;;;;;;;4.00;51.10;100614.65;2291015;78;20987;-83
2022/02/12 13:22:03;;;;;;;8.00;3.97;;;;;;;4.01;50.80;100614.75;2291313;78;20947;-83
2022/02/12 13:25:04;;;;;;;8.17;3.60;;;;;;;3.97;51.25;100617.03;2290833;78;20940;-83
2022/02/12 13:28:04;;;;;;;5.00;3.00;;;;;;;4.04;51.58;100611.47;2290877;78;21022;-84
2022/02/12 13:31:05;;;;;;;6.97;3.80;;;;;;;4.09;50.07;100608.39;2291301;78;20952;-83
2022/02/12 13:34:05;;;;;;;7.60;4.50;;;;;;;4.07;49.04;100606.50;2291319;78;20994;-83
2022/02/12 13:37:08;;;;;;;6.17;3.10;;;;;;;4.02;49.81;100605.31;2268242;78;21043;-83
2022/02/12 13:40:09;;;;;;;7.60;3.50;;;;;;;4.05;50.97;100604.22;2290153;78;20959;-83
2022/02/12 13:43:10;;;;;;;7.10;3.83;;;;;;;4.10;51.20;100602.83;2290513;78;20988;-82
2022/02/12 13:46:10;;;;;;;6.60;3.80;;;;;;;4.10;49.43;100597.66;2289874;78;20995;-83
2022/02/12 13:49:11;;;;;;;7.63;4.17;;;;;;;4.06;49.62;100599.55;2289641;78;21061;-82
2022/02/12 13:52:11;;;;;;;9.10;4.20;;;;;;;4.01;49.73;100597.06;2290409;78;20936;-82
2022/02/12 13:55:12;;;;;;;5.63;3.47;;;;;;;4.03;50.38;100603.22;2291529;78;21003;-83
2022/02/12 13:58:12;;;;;;;4.70;3.27;;;;;;;4.01;48.66;100600.94;2293325;77;20965;-84
2022/02/12 14:01:13;;;;;;;5.37;3.30;;;;;;;3.96;47.83;100592.88;2298745;77;20961;-84
2022/02/12 14:04:14;;;;;;;5.93;3.27;;;;;;;3.92;48.50;100590.89;2292220;77;20967;-82
2022/02/12 14:07:14;;;;;;;6.53;3.00;;;;;;;3.93;48.93;100591.79;2290934;78;21473;-82
2022/02/12 14:10:15;;;;;;;6.50;3.00;;;;;;;3.97;49.51;100588.61;2289787;78;20960;-82
2022/02/12 14:13:16;;;;;;;5.07;2.90;;;;;;;3.99;48.79;100578.88;2281669;78;21028;-83
2022/02/12 14:16:16;;;;;;;8.90;2.73;;;;;;;4.01;48.32;100577.68;2281054;78;20989;-82
2022/02/12 14:19:17;;;;;;;4.77;3.23;;;;;;;4.01;49.16;100580.27;2280578;77;20973;-82
2022/02/12 14:22:17;;;;;;;4.23;2.77;;;;;;;4.04;48.29;100568.83;2280320;77;20980;-82
2022/02/12 14:25:18;;;;;;;7.20;3.10;;;;;;;4.03;48.04;100563.17;2281758;77;20926;-83
2022/02/12 14:28:18;;;;;;;10.00;2.90;;;;;;;4.05;48.03;100550.84;2282340;77;21416;-83
2022/02/12 14:31:19;;;;;;;5.93;2.90;;;;;;;3.98;47.69;100552.94;2282019;77;20913;-82
2022/02/12 14:34:20;;;;;;;4.40;2.50;;;;;;;3.94;47.95;100555.72;2281957;77;20981;-83
2022/02/12 14:40:23;;;;;;;7.20;3.30;;;;;;;3.84;48.10;100548.16;2261728;78;20950;-83
2022/02/12 14:46:29;;;;;;;5.60;3.07;;;;;;;3.73;48.97;100536.23;2262092;78;21413;-82
2022/02/12 14:49:30;;;;;;;8.90;3.30;;;;;;;3.68;49.57;100536.33;2281848;78;20945;-83